sensor_id;sensor_type;location;lat;lon;timestamp;P1;durP1;ratioP1;P2;durP2;ratioP2
13891;SDS011;7016;48.172;8.058;2023-04-25T00:00:01;5.35;;;2.75;;
13891;SDS011;7016;48.172;8.058;2023-04-25T00:02:28;8.00;;;3.00;;
13891;SDS011;7016;48.172;8.058;2023-04-25T00:04:54;6.30;;;2.65;;
13891;SDS011;7016;48.172;8.058;2023-04-25T00:07:23;6.32;;;2.70;;
13891;SDS011;7016;48.172;8.058;2023-04-25T00:09:50;7.97;;;3.17;;
13891;SDS011;7016;48.172;8.058;2023-04-25T00:12:16;8.43;;;2.75;;
13891;SDS011;7016;48.172;8.058;2023-04-25T00:14:41;14.82;;;3.10;;
13891;SDS011;7016;48.172;8.058;2023-04-25T00:17:07;9.15;;;2.92;;
13891;SDS011;7016;48.172;8.058;2023-04-25T00:19:33;12.52;;;2.75;;
13891;SDS011;7016;48.172;8.058;2023-04-25T00:21:59;12.25;;;3.65;;
13891;SDS011;7016;48.172;8.058;2023-04-25T00:24:25;18.40;;;6.30;;
13891;SDS011;7016;48.172;8.058;2023-04-25T00:26:51;34.38;;;14.25;;
13891;SDS011;7016;48.172;8.058;2023-04-25T00:29:16;21.40;;;8.85;;
13891;SDS011;7016;48.172;8.058;2023-04-25T00:31:42;13.48;;;4.47;;
13891;SDS011;7016;48.172;8.058;2023-04-25T00:34:08;10.32;;;4.15;;
13891;SDS011;7016;48.172;8.058;2023-04-25T00:36:33;5.40;;;2.72;;
13891;SDS011;7016;48.172;8.058;2023-04-25T00:38:59;14.38;;;3.58;;
13891;SDS011;7016;48.172;8.058;2023-04-25T00:41:25;10.07;;;3.33;;
13891;SDS011;7016;48.172;8.058;2023-04-25T00:43:51;12.23;;;3.55;;
13891;SDS011;7016;48.172;8.058;2023-04-25T00:46:18;10.45;;;2.90;;
13891;SDS011;7016;48.172;8.058;2023-04-25T00:48:44;8.70;;;3.03;;
13891;SDS011;7016;48.172;8.058;2023-04-25T00:51:11;15.15;;;4.32;;
13891;SDS011;7016;48.172;8.058;2023-04-25T00:53:41;11.02;;;3.40;;
13891;SDS011;7016;48.172;8.058;2023-04-25T00:56:07;7.78;;;3.30;;
13891;SDS011;7016;48.172;8.058;2023-04-25T00:58:33;9.13;;;3.47;;
13891;SDS011;7016;48.172;8.058;2023-04-25T01:00:58;12.40;;;4.15;;
13891;SDS011;7016;48.172;8.058;2023-04-25T01:03:25;8.20;;;3.08;;
13891;SDS011;7016;48.172;8.058;2023-04-25T01:05:53;9.02;;;2.60;;
13891;SDS011;7016;48.172;8.058;2023-04-25T01:08:19;10.52;;;3.42;;
13891;SDS011;7016;48.172;8.058;2023-04-25T01:10:48;10.07;;;3.33;;
13891;SDS011;7016;48.172;8.058;2023-04-25T01:13:14;9.20;;;2.78;;
13891;SDS011;7016;48.172;8.058;2023-04-25T01:15:40;10.18;;;2.70;;
13891;SDS011;7016;48.172;8.058;2023-04-25T01:18:06;7.75;;;2.67;;
13891;SDS011;7016;48.172;8.058;2023-04-25T01:20:32;8.60;;;2.90;;
13891;SDS011;7016;48.172;8.058;2023-04-25T01:22:58;10.13;;;3.17;;
13891;SDS011;7016;48.172;8.058;2023-04-25T01:25:24;11.00;;;3.30;;
13891;SDS011;7016;48.172;8.058;2023-04-25T01:27:50;10.23;;;3.72;;
13891;SDS011;7016;48.172;8.058;2023-04-25T01:30:17;8.57;;;3.42;;
13891;SDS011;7016;48.172;8.058;2023-04-25T01:32:42;10.52;;;2.78;;
13891;SDS011;7016;48.172;8.058;2023-04-25T01:35:09;12.73;;;3.28;;
13891;SDS011;7016;48.172;8.058;2023-04-25T01:37:39;10.00;;;3.30;;
13891;SDS011;7016;48.172;8.058;2023-04-25T01:40:07;8.43;;;3.75;;
13891;SDS011;7016;48.172;8.058;2023-04-25T01:42:37;8.43;;;3.63;;
13891;SDS011;7016;48.172;8.058;2023-04-25T01:45:06;8.60;;;3.95;;
13891;SDS011;7016;48.172;8.058;2023-04-25T01:47:32;8.00;;;3.70;;
13891;SDS011;7016;48.172;8.058;2023-04-25T01:50:00;12.23;;;3.78;;
13891;SDS011;7016;48.172;8.058;2023-04-25T01:52:27;7.68;;;4.28;;
13891;SDS011;7016;48.172;8.058;2023-04-25T01:54:52;7.65;;;3.58;;
13891;SDS011;7016;48.172;8.058;2023-04-25T01:57:19;7.65;;;3.08;;
13891;SDS011;7016;48.172;8.058;2023-04-25T01:59:45;7.50;;;2.95;;
13891;SDS011;7016;48.172;8.058;2023-04-25T02:02:11;6.63;;;3.13;;
13891;SDS011;7016;48.172;8.058;2023-04-25T02:04:37;8.23;;;3.40;;
13891;SDS011;7016;48.172;8.058;2023-04-25T02:07:03;8.73;;;3.45;;
13891;SDS011;7016;48.172;8.058;2023-04-25T02:09:29;7.85;;;2.60;;
13891;SDS011;7016;48.172;8.058;2023-04-25T02:11:54;6.15;;;2.80;;
13891;SDS011;7016;48.172;8.058;2023-04-25T02:14:20;5.05;;;2.63;;
13891;SDS011;7016;48.172;8.058;2023-04-25T02:16:46;8.55;;;2.60;;
13891;SDS011;7016;48.172;8.058;2023-04-25T02:19:12;7.13;;;2.88;;
13891;SDS011;7016;48.172;8.058;2023-04-25T02:21:37;9.32;;;2.90;;
13891;SDS011;7016;48.172;8.058;2023-04-25T02:24:03;6.57;;;2.95;;
13891;SDS011;7016;48.172;8.058;2023-04-25T02:26:29;6.65;;;3.08;;
13891;SDS011;7016;48.172;8.058;2023-04-25T02:28:58;9.80;;;3.22;;
13891;SDS011;7016;48.172;8.058;2023-04-25T02:31:24;8.32;;;3.30;;
13891;SDS011;7016;48.172;8.058;2023-04-25T02:33:51;8.10;;;3.05;;
13891;SDS011;7016;48.172;8.058;2023-04-25T02:36:16;7.97;;;3.17;;
13891;SDS011;7016;48.172;8.058;2023-04-25T02:38:42;8.63;;;3.47;;
13891;SDS011;7016;48.172;8.058;2023-04-25T02:41:08;7.78;;;3.33;;
13891;SDS011;7016;48.172;8.058;2023-04-25T02:43:33;6.25;;;3.40;;
13891;SDS011;7016;48.172;8.058;2023-04-25T02:45:59;14.50;;;4.07;;
13891;SDS011;7016;48.172;8.058;2023-04-25T02:48:25;12.57;;;3.60;;
13891;SDS011;7016;48.172;8.058;2023-04-25T02:50:51;9.82;;;3.80;;
13891;SDS011;7016;48.172;8.058;2023-04-25T02:53:16;6.95;;;3.63;;
13891;SDS011;7016;48.172;8.058;2023-04-25T02:55:42;10.20;;;3.35;;
13891;SDS011;7016;48.172;8.058;2023-04-25T02:58:07;7.25;;;3.15;;
13891;SDS011;7016;48.172;8.058;2023-04-25T03:00:33;7.38;;;3.35;;
13891;SDS011;7016;48.172;8.058;2023-04-25T03:02:59;12.82;;;4.00;;
13891;SDS011;7016;48.172;8.058;2023-04-25T03:05:25;6.88;;;3.05;;
13891;SDS011;7016;48.172;8.058;2023-04-25T03:07:50;8.98;;;3.60;;
13891;SDS011;7016;48.172;8.058;2023-04-25T03:10:16;11.63;;;4.13;;
13891;SDS011;7016;48.172;8.058;2023-04-25T03:12:42;10.07;;;3.47;;
13891;SDS011;7016;48.172;8.058;2023-04-25T03:15:07;9.20;;;2.97;;
13891;SDS011;7016;48.172;8.058;2023-04-25T03:17:33;8.63;;;3.47;;
13891;SDS011;7016;48.172;8.058;2023-04-25T03:19:59;8.85;;;3.50;;
13891;SDS011;7016;48.172;8.058;2023-04-25T03:22:25;9.60;;;3.55;;
13891;SDS011;7016;48.172;8.058;2023-04-25T03:24:51;7.22;;;3.50;;
13891;SDS011;7016;48.172;8.058;2023-04-25T03:27:17;14.40;;;4.38;;
13891;SDS011;7016;48.172;8.058;2023-04-25T03:29:42;9.20;;;3.80;;
13891;SDS011;7016;48.172;8.058;2023-04-25T03:32:08;9.07;;;3.70;;
13891;SDS011;7016;48.172;8.058;2023-04-25T03:34:34;8.70;;;3.90;;
13891;SDS011;7016;48.172;8.058;2023-04-25T03:37:00;11.07;;;3.95;;
13891;SDS011;7016;48.172;8.058;2023-04-25T03:39:26;9.77;;;3.50;;
13891;SDS011;7016;48.172;8.058;2023-04-25T03:41:51;8.10;;;3.58;;
13891;SDS011;7016;48.172;8.058;2023-04-25T03:44:17;10.40;;;3.70;;
13891;SDS011;7016;48.172;8.058;2023-04-25T03:46:43;9.38;;;3.30;;
13891;SDS011;7016;48.172;8.058;2023-04-25T03:49:08;8.88;;;3.83;;
13891;SDS011;7016;48.172;8.058;2023-04-25T03:51:34;17.17;;;4.35;;
13891;SDS011;7016;48.172;8.058;2023-04-25T03:54:00;8.05;;;4.03;;
13891;SDS011;7016;48.172;8.058;2023-04-25T03:56:26;8.90;;;4.22;;
13891;SDS011;7016;48.172;8.058;2023-04-25T03:58:51;9.70;;;4.30;;
13891;SDS011;7016;48.172;8.058;2023-04-25T04:01:17;8.77;;;3.95;;
13891;SDS011;7016;48.172;8.058;2023-04-25T04:03:43;8.70;;;4.00;;
13891;SDS011;7016;48.172;8.058;2023-04-25T04:06:08;9.50;;;3.50;;
13891;SDS011;7016;48.172;8.058;2023-04-25T04:08:34;7.38;;;3.42;;
13891;SDS011;7016;48.172;8.058;2023-04-25T04:11:00;8.38;;;3.45;;
13891;SDS011;7016;48.172;8.058;2023-04-25T04:13:26;5.50;;;3.35;;
13891;SDS011;7016;48.172;8.058;2023-04-25T04:15:52;9.60;;;3.70;;
13891;SDS011;7016;48.172;8.058;2023-04-25T04:18:18;8.43;;;3.65;;
13891;SDS011;7016;48.172;8.058;2023-04-25T04:20:44;8.80;;;3.50;;
13891;SDS011;7016;48.172;8.058;2023-04-25T04:23:10;8.63;;;3.45;;
13891;SDS011;7016;48.172;8.058;2023-04-25T04:25:36;8.52;;;3.20;;
13891;SDS011;7016;48.172;8.058;2023-04-25T04:28:02;5.85;;;3.05;;
13891;SDS011;7016;48.172;8.058;2023-04-25T04:30:27;5.90;;;3.10;;
13891;SDS011;7016;48.172;8.058;2023-04-25T04:32:56;8.27;;;4.88;;
13891;SDS011;7016;48.172;8.058;2023-04-25T04:35:22;14.68;;;5.90;;
13891;SDS011;7016;48.172;8.058;2023-04-25T04:37:49;9.85;;;3.67;;
13891;SDS011;7016;48.172;8.058;2023-04-25T04:40:14;8.25;;;3.65;;
13891;SDS011;7016;48.172;8.058;2023-04-25T04:42:41;13.13;;;3.78;;
13891;SDS011;7016;48.172;8.058;2023-04-25T04:45:08;8.88;;;4.28;;
13891;SDS011;7016;48.172;8.058;2023-04-25T04:47:35;6.10;;;3.40;;
13891;SDS011;7016;48.172;8.058;2023-04-25T04:50:02;8.98;;;3.50;;
13891;SDS011;7016;48.172;8.058;2023-04-25T04:52:29;9.98;;;3.45;;
13891;SDS011;7016;48.172;8.058;2023-04-25T04:54:55;10.48;;;4.13;;
13891;SDS011;7016;48.172;8.058;2023-04-25T04:57:20;7.20;;;3.60;;
13891;SDS011;7016;48.172;8.058;2023-04-25T04:59:46;8.82;;;3.85;;
13891;SDS011;7016;48.172;8.058;2023-04-25T05:02:12;7.95;;;3.97;;
13891;SDS011;7016;48.172;8.058;2023-04-25T05:04:38;8.32;;;4.25;;
13891;SDS011;7016;48.172;8.058;2023-04-25T05:07:03;12.23;;;4.43;;
13891;SDS011;7016;48.172;8.058;2023-04-25T05:09:29;24.67;;;4.47;;
13891;SDS011;7016;48.172;8.058;2023-04-25T05:11:55;10.25;;;4.22;;
13891;SDS011;7016;48.172;8.058;2023-04-25T05:14:21;7.82;;;3.67;;
13891;SDS011;7016;48.172;8.058;2023-04-25T05:16:47;9.13;;;4.40;;
13891;SDS011;7016;48.172;8.058;2023-04-25T05:19:13;11.18;;;4.38;;
13891;SDS011;7016;48.172;8.058;2023-04-25T05:21:39;14.50;;;4.80;;
13891;SDS011;7016;48.172;8.058;2023-04-25T05:24:05;14.38;;;5.40;;
13891;SDS011;7016;48.172;8.058;2023-04-25T05:26:31;10.65;;;5.43;;
13891;SDS011;7016;48.172;8.058;2023-04-25T05:28:57;9.02;;;5.45;;
13891;SDS011;7016;48.172;8.058;2023-04-25T05:31:23;13.25;;;5.20;;
13891;SDS011;7016;48.172;8.058;2023-04-25T05:33:48;9.30;;;5.03;;
13891;SDS011;7016;48.172;8.058;2023-04-25T05:36:14;11.40;;;5.35;;
13891;SDS011;7016;48.172;8.058;2023-04-25T05:38:40;12.90;;;6.50;;
13891;SDS011;7016;48.172;8.058;2023-04-25T05:41:05;13.52;;;6.10;;
13891;SDS011;7016;48.172;8.058;2023-04-25T05:43:32;8.48;;;5.22;;
13891;SDS011;7016;48.172;8.058;2023-04-25T05:45:58;7.35;;;5.25;;
13891;SDS011;7016;48.172;8.058;2023-04-25T05:48:23;15.23;;;5.57;;
13891;SDS011;7016;48.172;8.058;2023-04-25T05:50:49;10.27;;;5.45;;
13891;SDS011;7016;48.172;8.058;2023-04-25T05:53:16;10.32;;;5.55;;
13891;SDS011;7016;48.172;8.058;2023-04-25T05:55:42;9.43;;;4.65;;
13891;SDS011;7016;48.172;8.058;2023-04-25T05:58:08;11.35;;;4.68;;
13891;SDS011;7016;48.172;8.058;2023-04-25T06:00:34;11.50;;;4.45;;
13891;SDS011;7016;48.172;8.058;2023-04-25T06:03:00;10.48;;;4.45;;
13891;SDS011;7016;48.172;8.058;2023-04-25T06:05:26;12.32;;;4.68;;
13891;SDS011;7016;48.172;8.058;2023-04-25T06:07:52;20.27;;;11.48;;
13891;SDS011;7016;48.172;8.058;2023-04-25T06:10:17;14.25;;;7.68;;
13891;SDS011;7016;48.172;8.058;2023-04-25T06:12:43;10.35;;;4.78;;
13891;SDS011;7016;48.172;8.058;2023-04-25T06:15:09;18.52;;;5.47;;
13891;SDS011;7016;48.172;8.058;2023-04-25T06:17:35;14.30;;;4.85;;
13891;SDS011;7016;48.172;8.058;2023-04-25T06:20:01;16.13;;;5.93;;
13891;SDS011;7016;48.172;8.058;2023-04-25T06:22:28;15.07;;;5.38;;
13891;SDS011;7016;48.172;8.058;2023-04-25T06:24:54;11.73;;;4.40;;
13891;SDS011;7016;48.172;8.058;2023-04-25T06:27:22;8.13;;;3.33;;
13891;SDS011;7016;48.172;8.058;2023-04-25T06:29:51;4.22;;;2.42;;
13891;SDS011;7016;48.172;8.058;2023-04-25T06:32:16;3.30;;;1.77;;
13891;SDS011;7016;48.172;8.058;2023-04-25T06:34:43;4.80;;;2.00;;
13891;SDS011;7016;48.172;8.058;2023-04-25T06:37:09;3.47;;;1.50;;
13891;SDS011;7016;48.172;8.058;2023-04-25T06:39:34;1.80;;;1.30;;
13891;SDS011;7016;48.172;8.058;2023-04-25T06:42:00;4.10;;;1.80;;
13891;SDS011;7016;48.172;8.058;2023-04-25T06:44:26;4.22;;;1.70;;
13891;SDS011;7016;48.172;8.058;2023-04-25T06:46:54;2.10;;;1.45;;
13891;SDS011;7016;48.172;8.058;2023-04-25T06:49:20;3.20;;;1.20;;
13891;SDS011;7016;48.172;8.058;2023-04-25T06:51:45;3.70;;;1.40;;
13891;SDS011;7016;48.172;8.058;2023-04-25T06:54:11;3.28;;;1.30;;
13891;SDS011;7016;48.172;8.058;2023-04-25T06:56:36;1.92;;;1.05;;
13891;SDS011;7016;48.172;8.058;2023-04-25T06:59:02;1.25;;;0.70;;
13891;SDS011;7016;48.172;8.058;2023-04-25T07:01:31;3.72;;;0.75;;
13891;SDS011;7016;48.172;8.058;2023-04-25T07:03:57;3.90;;;0.85;;
13891;SDS011;7016;48.172;8.058;2023-04-25T07:06:22;1.77;;;0.95;;
13891;SDS011;7016;48.172;8.058;2023-04-25T07:08:48;4.55;;;0.90;;
13891;SDS011;7016;48.172;8.058;2023-04-25T07:11:14;0.85;;;0.60;;
13891;SDS011;7016;48.172;8.058;2023-04-25T07:13:40;1.65;;;0.93;;
13891;SDS011;7016;48.172;8.058;2023-04-25T07:16:05;1.17;;;0.70;;
13891;SDS011;7016;48.172;8.058;2023-04-25T07:18:31;2.72;;;1.50;;
13891;SDS011;7016;48.172;8.058;2023-04-25T07:20:57;6.18;;;1.60;;
13891;SDS011;7016;48.172;8.058;2023-04-25T07:23:22;2.63;;;1.13;;
13891;SDS011;7016;48.172;8.058;2023-04-25T07:25:48;1.60;;;1.10;;
13891;SDS011;7016;48.172;8.058;2023-04-25T07:28:14;1.73;;;0.95;;
13891;SDS011;7016;48.172;8.058;2023-04-25T07:30:40;4.43;;;1.80;;
13891;SDS011;7016;48.172;8.058;2023-04-25T07:33:05;4.80;;;1.73;;
13891;SDS011;7016;48.172;8.058;2023-04-25T07:35:31;5.63;;;1.67;;
13891;SDS011;7016;48.172;8.058;2023-04-25T07:37:57;2.03;;;1.10;;
13891;SDS011;7016;48.172;8.058;2023-04-25T07:40:24;1.45;;;0.60;;
13891;SDS011;7016;48.172;8.058;2023-04-25T07:42:49;1.23;;;0.70;;
13891;SDS011;7016;48.172;8.058;2023-04-25T07:45:15;1.13;;;0.80;;
13891;SDS011;7016;48.172;8.058;2023-04-25T07:47:41;2.75;;;1.20;;
13891;SDS011;7016;48.172;8.058;2023-04-25T07:50:06;2.88;;;0.80;;
13891;SDS011;7016;48.172;8.058;2023-04-25T07:52:33;2.38;;;1.10;;
13891;SDS011;7016;48.172;8.058;2023-04-25T07:54:58;1.73;;;1.17;;
13891;SDS011;7016;48.172;8.058;2023-04-25T07:57:25;1.83;;;1.10;;
13891;SDS011;7016;48.172;8.058;2023-04-25T07:59:51;4.05;;;2.30;;
13891;SDS011;7016;48.172;8.058;2023-04-25T08:02:17;3.75;;;2.05;;
13891;SDS011;7016;48.172;8.058;2023-04-25T08:04:42;1.40;;;0.80;;
13891;SDS011;7016;48.172;8.058;2023-04-25T08:07:08;0.93;;;0.80;;
13891;SDS011;7016;48.172;8.058;2023-04-25T08:09:34;3.55;;;1.30;;
13891;SDS011;7016;48.172;8.058;2023-04-25T08:12:02;2.45;;;1.40;;
13891;SDS011;7016;48.172;8.058;2023-04-25T08:14:28;2.50;;;0.80;;
13891;SDS011;7016;48.172;8.058;2023-04-25T08:17:00;3.15;;;1.00;;
13891;SDS011;7016;48.172;8.058;2023-04-25T08:19:29;1.85;;;1.20;;
13891;SDS011;7016;48.172;8.058;2023-04-25T08:21:55;1.52;;;1.00;;
13891;SDS011;7016;48.172;8.058;2023-04-25T08:24:22;2.22;;;1.33;;
13891;SDS011;7016;48.172;8.058;2023-04-25T08:26:48;4.40;;;1.60;;
13891;SDS011;7016;48.172;8.058;2023-04-25T08:29:14;3.47;;;1.80;;
13891;SDS011;7016;48.172;8.058;2023-04-25T08:31:40;3.67;;;1.73;;
13891;SDS011;7016;48.172;8.058;2023-04-25T08:34:05;4.60;;;2.25;;
13891;SDS011;7016;48.172;8.058;2023-04-25T08:36:31;2.90;;;1.52;;
13891;SDS011;7016;48.172;8.058;2023-04-25T08:38:57;3.78;;;1.77;;
13891;SDS011;7016;48.172;8.058;2023-04-25T08:41:23;4.53;;;1.80;;
13891;SDS011;7016;48.172;8.058;2023-04-25T08:43:50;4.15;;;2.08;;
13891;SDS011;7016;48.172;8.058;2023-04-25T08:46:18;3.60;;;1.80;;
13891;SDS011;7016;48.172;8.058;2023-04-25T08:48:45;3.75;;;2.03;;
13891;SDS011;7016;48.172;8.058;2023-04-25T08:51:46;9.02;;;3.03;;
13891;SDS011;7016;48.172;8.058;2023-04-25T08:54:11;6.78;;;2.45;;
13891;SDS011;7016;48.172;8.058;2023-04-25T08:56:43;6.97;;;1.67;;
13891;SDS011;7016;48.172;8.058;2023-04-25T08:59:10;2.25;;;1.40;;
13891;SDS011;7016;48.172;8.058;2023-04-25T09:01:37;1.80;;;1.45;;
13891;SDS011;7016;48.172;8.058;2023-04-25T09:04:03;5.90;;;2.15;;
13891;SDS011;7016;48.172;8.058;2023-04-25T09:06:29;3.60;;;1.85;;
13891;SDS011;7016;48.172;8.058;2023-04-25T09:09:05;2.00;;;1.40;;
13891;SDS011;7016;48.172;8.058;2023-04-25T09:11:32;3.42;;;1.30;;
13891;SDS011;7016;48.172;8.058;2023-04-25T09:19:21;5.25;;;2.45;;
13891;SDS011;7016;48.172;8.058;2023-04-25T09:21:51;3.22;;;1.38;;
13891;SDS011;7016;48.172;8.058;2023-04-25T09:27:11;3.90;;;1.48;;
13891;SDS011;7016;48.172;8.058;2023-04-25T09:29:43;1.88;;;1.40;;
13891;SDS011;7016;48.172;8.058;2023-04-25T09:34:45;1.67;;;1.10;;
13891;SDS011;7016;48.172;8.058;2023-04-25T09:37:25;1.40;;;0.68;;
13891;SDS011;7016;48.172;8.058;2023-04-25T09:39:57;2.42;;;0.77;;
13891;SDS011;7016;48.172;8.058;2023-04-25T09:42:25;0.95;;;0.80;;
13891;SDS011;7016;48.172;8.058;2023-04-25T09:44:54;1.25;;;0.93;;
13891;SDS011;7016;48.172;8.058;2023-04-25T09:47:20;1.67;;;0.68;;
13891;SDS011;7016;48.172;8.058;2023-04-25T09:49:49;0.93;;;0.60;;
13891;SDS011;7016;48.172;8.058;2023-04-25T09:52:19;0.98;;;0.68;;
13891;SDS011;7016;48.172;8.058;2023-04-25T09:54:46;2.15;;;0.60;;
13891;SDS011;7016;48.172;8.058;2023-04-25T09:57:14;0.85;;;0.60;;
13891;SDS011;7016;48.172;8.058;2023-04-25T09:59:51;2.63;;;0.70;;
13891;SDS011;7016;48.172;8.058;2023-04-25T10:02:20;0.80;;;0.50;;
13891;SDS011;7016;48.172;8.058;2023-04-25T10:04:48;0.88;;;0.50;;
13891;SDS011;7016;48.172;8.058;2023-04-25T10:07:20;0.75;;;0.60;;
13891;SDS011;7016;48.172;8.058;2023-04-25T10:09:50;1.10;;;0.50;;
13891;SDS011;7016;48.172;8.058;2023-04-25T10:12:28;0.80;;;0.60;;
13891;SDS011;7016;48.172;8.058;2023-04-25T10:14:56;0.75;;;0.60;;
13891;SDS011;7016;48.172;8.058;2023-04-25T10:17:23;1.67;;;0.50;;
13891;SDS011;7016;48.172;8.058;2023-04-25T10:19:52;1.58;;;0.52;;
13891;SDS011;7016;48.172;8.058;2023-04-25T10:22:35;0.55;;;0.43;;
13891;SDS011;7016;48.172;8.058;2023-04-25T10:25:07;0.70;;;0.45;;
13891;SDS011;7016;48.172;8.058;2023-04-25T10:27:33;1.70;;;0.70;;
13891;SDS011;7016;48.172;8.058;2023-04-25T10:30:07;1.02;;;0.60;;
13891;SDS011;7016;48.172;8.058;2023-04-25T10:32:39;0.65;;;0.52;;
13891;SDS011;7016;48.172;8.058;2023-04-25T10:35:10;0.80;;;0.40;;
13891;SDS011;7016;48.172;8.058;2023-04-25T10:37:36;1.10;;;0.60;;
13891;SDS011;7016;48.172;8.058;2023-04-25T10:40:08;3.20;;;1.52;;
13891;SDS011;7016;48.172;8.058;2023-04-25T10:42:35;3.60;;;1.83;;
13891;SDS011;7016;48.172;8.058;2023-04-25T10:45:04;3.53;;;1.70;;
13891;SDS011;7016;48.172;8.058;2023-04-25T10:47:34;3.60;;;1.85;;
13891;SDS011;7016;48.172;8.058;2023-04-25T10:50:05;2.92;;;1.50;;
13891;SDS011;7016;48.172;8.058;2023-04-25T10:52:32;2.80;;;1.50;;
13891;SDS011;7016;48.172;8.058;2023-04-25T10:54:58;3.05;;;1.52;;
13891;SDS011;7016;48.172;8.058;2023-04-25T11:00:16;5.85;;;1.45;;
13891;SDS011;7016;48.172;8.058;2023-04-25T11:02:53;2.65;;;1.60;;
13891;SDS011;7016;48.172;8.058;2023-04-25T11:05:31;2.30;;;1.60;;
13891;SDS011;7016;48.172;8.058;2023-04-25T11:07:58;5.05;;;2.15;;
13891;SDS011;7016;48.172;8.058;2023-04-25T11:10:25;6.03;;;2.33;;
13891;SDS011;7016;48.172;8.058;2023-04-25T11:12:52;4.97;;;2.58;;
13891;SDS011;7016;48.172;8.058;2023-04-25T11:15:17;2.72;;;2.03;;
13891;SDS011;7016;48.172;8.058;2023-04-25T11:17:43;6.20;;;2.10;;
13891;SDS011;7016;48.172;8.058;2023-04-25T11:20:11;3.75;;;2.20;;
13891;SDS011;7016;48.172;8.058;2023-04-25T11:22:39;4.40;;;2.63;;
13891;SDS011;7016;48.172;8.058;2023-04-25T11:25:08;7.25;;;2.22;;
13891;SDS011;7016;48.172;8.058;2023-04-25T11:27:54;4.38;;;2.33;;
13891;SDS011;7016;48.172;8.058;2023-04-25T11:30:22;5.13;;;2.28;;
13891;SDS011;7016;48.172;8.058;2023-04-25T11:32:49;4.45;;;2.05;;
13891;SDS011;7016;48.172;8.058;2023-04-25T11:35:16;3.45;;;2.10;;
13891;SDS011;7016;48.172;8.058;2023-04-25T11:37:43;3.50;;;2.13;;
13891;SDS011;7016;48.172;8.058;2023-04-25T11:40:10;4.82;;;2.40;;
13891;SDS011;7016;48.172;8.058;2023-04-25T11:42:47;6.22;;;2.10;;
13891;SDS011;7016;48.172;8.058;2023-04-25T11:45:13;5.57;;;2.70;;
13891;SDS011;7016;48.172;8.058;2023-04-25T11:47:39;7.47;;;3.20;;
13891;SDS011;7016;48.172;8.058;2023-04-25T11:50:06;5.85;;;2.70;;
13891;SDS011;7016;48.172;8.058;2023-04-25T11:57:35;4.07;;;2.00;;
13891;SDS011;7016;48.172;8.058;2023-04-25T12:02:41;3.28;;;2.20;;
13891;SDS011;7016;48.172;8.058;2023-04-25T12:05:08;4.55;;;2.38;;
13891;SDS011;7016;48.172;8.058;2023-04-25T12:07:34;3.10;;;2.38;;
13891;SDS011;7016;48.172;8.058;2023-04-25T12:10:20;3.17;;;2.13;;
13891;SDS011;7016;48.172;8.058;2023-04-25T12:12:46;4.45;;;2.20;;
13891;SDS011;7016;48.172;8.058;2023-04-25T12:17:48;4.72;;;2.40;;
13891;SDS011;7016;48.172;8.058;2023-04-25T12:20:16;4.55;;;1.92;;
13891;SDS011;7016;48.172;8.058;2023-04-25T12:22:45;4.68;;;2.10;;
13891;SDS011;7016;48.172;8.058;2023-04-25T12:25:20;7.57;;;2.25;;
13891;SDS011;7016;48.172;8.058;2023-04-25T12:33:35;4.78;;;2.17;;
13891;SDS011;7016;48.172;8.058;2023-04-25T12:36:02;2.53;;;1.80;;
13891;SDS011;7016;48.172;8.058;2023-04-25T12:38:35;6.28;;;3.28;;
13891;SDS011;7016;48.172;8.058;2023-04-25T12:41:05;3.13;;;1.95;;
13891;SDS011;7016;48.172;8.058;2023-04-25T12:43:31;5.45;;;3.25;;
13891;SDS011;7016;48.172;8.058;2023-04-25T12:45:57;7.53;;;4.53;;
13891;SDS011;7016;48.172;8.058;2023-04-25T12:48:23;5.30;;;2.90;;
13891;SDS011;7016;48.172;8.058;2023-04-25T12:50:49;5.65;;;3.58;;
13891;SDS011;7016;48.172;8.058;2023-04-25T12:53:17;6.40;;;1.92;;
13891;SDS011;7016;48.172;8.058;2023-04-25T12:55:44;4.80;;;2.90;;
13891;SDS011;7016;48.172;8.058;2023-04-25T12:58:13;3.92;;;2.47;;
13891;SDS011;7016;48.172;8.058;2023-04-25T13:00:40;4.03;;;1.40;;
13891;SDS011;7016;48.172;8.058;2023-04-25T13:03:05;2.25;;;1.33;;
13891;SDS011;7016;48.172;8.058;2023-04-25T13:05:31;2.35;;;1.02;;
13891;SDS011;7016;48.172;8.058;2023-04-25T13:07:57;7.07;;;1.60;;
13891;SDS011;7016;48.172;8.058;2023-04-25T13:10:24;1.88;;;1.20;;
13891;SDS011;7016;48.172;8.058;2023-04-25T13:12:50;4.13;;;2.10;;
13891;SDS011;7016;48.172;8.058;2023-04-25T13:15:15;4.97;;;2.35;;
13891;SDS011;7016;48.172;8.058;2023-04-25T13:17:41;7.63;;;2.60;;
13891;SDS011;7016;48.172;8.058;2023-04-25T13:20:07;4.38;;;2.40;;
13891;SDS011;7016;48.172;8.058;2023-04-25T13:22:34;4.22;;;1.80;;
13891;SDS011;7016;48.172;8.058;2023-04-25T13:25:04;4.97;;;1.70;;
13891;SDS011;7016;48.172;8.058;2023-04-25T13:27:32;6.63;;;2.42;;
13891;SDS011;7016;48.172;8.058;2023-04-25T13:29:59;4.15;;;2.45;;
13891;SDS011;7016;48.172;8.058;2023-04-25T13:32:26;7.40;;;3.28;;
13891;SDS011;7016;48.172;8.058;2023-04-25T13:34:52;6.40;;;3.03;;
13891;SDS011;7016;48.172;8.058;2023-04-25T13:37:18;8.68;;;3.05;;
13891;SDS011;7016;48.172;8.058;2023-04-25T13:39:43;5.25;;;2.92;;
13891;SDS011;7016;48.172;8.058;2023-04-25T13:42:09;2.85;;;1.63;;
13891;SDS011;7016;48.172;8.058;2023-04-25T13:44:36;4.28;;;1.70;;
13891;SDS011;7016;48.172;8.058;2023-04-25T13:47:02;6.22;;;1.50;;
13891;SDS011;7016;48.172;8.058;2023-04-25T13:49:28;2.58;;;1.50;;
13891;SDS011;7016;48.172;8.058;2023-04-25T13:51:53;3.28;;;1.73;;
13891;SDS011;7016;48.172;8.058;2023-04-25T13:54:19;2.90;;;2.05;;
13891;SDS011;7016;48.172;8.058;2023-04-25T13:56:45;4.70;;;2.10;;
13891;SDS011;7016;48.172;8.058;2023-04-25T13:59:10;3.78;;;1.90;;
13891;SDS011;7016;48.172;8.058;2023-04-25T14:01:36;3.50;;;1.90;;
13891;SDS011;7016;48.172;8.058;2023-04-25T14:04:02;3.10;;;1.90;;
13891;SDS011;7016;48.172;8.058;2023-04-25T14:06:29;3.08;;;1.80;;
13891;SDS011;7016;48.172;8.058;2023-04-25T14:08:56;4.45;;;2.05;;
13891;SDS011;7016;48.172;8.058;2023-04-25T14:11:22;6.13;;;1.55;;
13891;SDS011;7016;48.172;8.058;2023-04-25T14:13:47;3.50;;;1.50;;
13891;SDS011;7016;48.172;8.058;2023-04-25T14:16:14;3.67;;;1.40;;
13891;SDS011;7016;48.172;8.058;2023-04-25T14:18:40;14.10;;;6.68;;
13891;SDS011;7016;48.172;8.058;2023-04-25T14:21:06;10.82;;;5.63;;
13891;SDS011;7016;48.172;8.058;2023-04-25T14:23:32;2.97;;;1.55;;
13891;SDS011;7016;48.172;8.058;2023-04-25T14:25:57;2.67;;;1.40;;
13891;SDS011;7016;48.172;8.058;2023-04-25T14:28:23;4.20;;;1.15;;
13891;SDS011;7016;48.172;8.058;2023-04-25T14:30:49;1.55;;;1.27;;
13891;SDS011;7016;48.172;8.058;2023-04-25T14:33:14;2.05;;;1.50;;
13891;SDS011;7016;48.172;8.058;2023-04-25T14:35:40;3.45;;;1.60;;
13891;SDS011;7016;48.172;8.058;2023-04-25T14:38:06;3.03;;;1.17;;
13891;SDS011;7016;48.172;8.058;2023-04-25T14:40:32;3.05;;;1.10;;
13891;SDS011;7016;48.172;8.058;2023-04-25T14:42:58;2.10;;;1.17;;
13891;SDS011;7016;48.172;8.058;2023-04-25T14:45:27;1.83;;;0.90;;
13891;SDS011;7016;48.172;8.058;2023-04-25T14:47:53;1.50;;;0.90;;
13891;SDS011;7016;48.172;8.058;2023-04-25T14:50:18;1.38;;;1.00;;
13891;SDS011;7016;48.172;8.058;2023-04-25T14:52:44;1.17;;;1.00;;
13891;SDS011;7016;48.172;8.058;2023-04-25T14:55:10;1.08;;;0.95;;
13891;SDS011;7016;48.172;8.058;2023-04-25T14:57:36;2.63;;;0.80;;
13891;SDS011;7016;48.172;8.058;2023-04-25T15:00:04;0.70;;;0.60;;
13891;SDS011;7016;48.172;8.058;2023-04-25T15:02:33;2.88;;;0.65;;
13891;SDS011;7016;48.172;8.058;2023-04-25T15:05:00;1.23;;;0.80;;
13891;SDS011;7016;48.172;8.058;2023-04-25T15:07:25;1.02;;;0.80;;
13891;SDS011;7016;48.172;8.058;2023-04-25T15:09:51;2.10;;;1.10;;
13891;SDS011;7016;48.172;8.058;2023-04-25T15:12:18;2.35;;;1.30;;
13891;SDS011;7016;48.172;8.058;2023-04-25T15:14:44;6.60;;;2.88;;
13891;SDS011;7016;48.172;8.058;2023-04-25T15:17:10;3.20;;;1.10;;
13891;SDS011;7016;48.172;8.058;2023-04-25T15:19:38;2.13;;;1.00;;
13891;SDS011;7016;48.172;8.058;2023-04-25T15:22:04;1.38;;;0.90;;
13891;SDS011;7016;48.172;8.058;2023-04-25T15:24:31;1.63;;;1.10;;